Terminal Aerodrome Forecast
Issued by NWS

Home | Current Version | Previous Version | Text Only | Print | Product List | Glossary On
Versions: 1 2 3 4 5 6 7 8 9 10 11 12 13 14 15 16 17 18 19 20 21 22 23 24 25 26 27 28 29 30 31 32 33 34 35 36 37 38 39 40 41 42 43 44
000
FTUS43 KDTX 131344 AAB
TAFPTK
TAF AMD
KPTK 131344Z 1314/1412 18007KT 5SM -SN OVC025
      TEMPO 1314/1317 2SM -SN
     FM131800 14010KT 1SM -SN OVC018
     FM132100 12012KT 1/4SM +SN OVC004
     FM140100 04007KT 2SM -SHSN OVC012
     FM140500 35008KT P6SM BKN035
     FM141100 32009KT P6SM FEW040 SCT100=

USA.gov is the U.S. government's official web portal to all federal, state and local government web resources and services.